createdAt,value
2023-02-19T00:00:20.656Z,78.50
2023-02-19T00:01:20.662Z,78.39
2023-02-19T00:02:20.634Z,78.39
2023-02-19T00:03:20.655Z,78.39
2023-02-19T00:04:20.628Z,78.50
2023-02-19T00:05:20.616Z,78.39
2023-02-19T00:06:20.617Z,78.19
2023-02-19T00:07:20.600Z,78.19
2023-02-19T00:08:20.603Z,78.19
2023-02-19T00:09:20.567Z,78.09
2023-02-19T00:10:20.559Z,78.09
2023-02-19T00:11:20.539Z,77.88
2023-02-19T00:12:20.538Z,77.78
2023-02-19T00:13:20.504Z,77.68
2023-02-19T00:14:20.532Z,77.47
2023-02-19T00:15:20.505Z,77.47
2023-02-19T00:16:20.535Z,77.47
2023-02-19T00:17:20.514Z,77.37
2023-02-19T00:18:20.488Z,77.37
2023-02-19T00:19:20.499Z,77.37
2023-02-19T00:20:20.477Z,77.37
2023-02-19T00:21:20.478Z,77.37
2023-02-19T00:22:20.456Z,77.37
2023-02-19T00:23:20.430Z,77.26
2023-02-19T00:24:20.431Z,77.26
2023-02-19T00:25:20.433Z,77.06
2023-02-19T00:26:20.414Z,76.96
2023-02-19T00:27:20.413Z,76.86
2023-02-19T00:28:20.377Z,76.75
2023-02-19T00:29:20.378Z,76.86
2023-02-19T00:30:20.413Z,76.65
2023-02-19T00:31:20.558Z,76.45
2023-02-19T00:32:20.394Z,76.45
2023-02-19T00:33:20.323Z,76.55
2023-02-19T00:34:20.335Z,76.55
2023-02-19T00:35:20.309Z,76.65
2023-02-19T00:36:20.291Z,76.65
2023-02-19T00:37:20.347Z,76.75
2023-02-19T00:38:20.268Z,76.75
2023-02-19T00:39:20.275Z,76.86
2023-02-19T00:40:20.245Z,76.96
2023-02-19T00:41:20.268Z,77.06
2023-02-19T00:42:20.235Z,77.17
2023-02-19T00:43:20.225Z,77.06
2023-02-19T00:44:20.234Z,77.26
2023-02-19T00:45:20.225Z,77.26
2023-02-19T00:46:20.226Z,77.37
2023-02-19T00:47:20.194Z,77.37
2023-02-19T00:48:20.166Z,77.47
2023-02-19T00:49:20.176Z,77.47
2023-02-19T00:50:20.150Z,77.58
2023-02-19T00:51:20.303Z,77.58
2023-02-19T00:52:20.126Z,77.78
2023-02-19T00:53:20.113Z,77.78
2023-02-19T00:54:20.116Z,77.88
2023-02-19T00:55:20.109Z,77.88
2023-02-19T00:56:20.104Z,77.88
2023-02-19T00:57:20.160Z,77.98
2023-02-19T00:58:20.062Z,78.12
2023-02-19T00:59:20.058Z,78.23
2023-02-19T01:00:20.036Z,78.33
2023-02-19T01:01:20.052Z,78.33
2023-02-19T01:02:20.037Z,78.33
2023-02-19T01:03:20.008Z,78.33
2023-02-19T01:04:20.009Z,78.33
2023-02-19T01:05:19.993Z,78.23
2023-02-19T01:06:19.977Z,78.23
2023-02-19T01:07:19.981Z,78.23
2023-02-19T01:08:19.951Z,78.33
2023-02-19T01:09:19.950Z,78.33
2023-02-19T01:10:19.924Z,78.33
2023-02-19T01:11:19.905Z,78.43
2023-02-19T01:12:19.959Z,78.64
2023-02-19T01:13:19.883Z,78.74
2023-02-19T01:14:19.871Z,78.74
2023-02-19T01:15:19.890Z,78.85
2023-02-19T01:16:19.903Z,78.85
2023-02-19T01:17:19.852Z,78.85
2023-02-19T01:18:19.827Z,78.85
2023-02-19T01:19:19.845Z,78.85
2023-02-19T01:20:19.820Z,78.85
2023-02-19T01:21:19.852Z,78.85
2023-02-19T01:22:19.847Z,78.85
2023-02-19T01:23:19.807Z,78.85
2023-02-19T01:24:19.775Z,78.85
2023-02-19T01:25:19.796Z,78.85
2023-02-19T01:26:19.776Z,78.94
2023-02-19T01:27:19.777Z,78.85
2023-02-19T01:28:19.737Z,78.85
2023-02-19T01:29:19.717Z,78.85
2023-02-19T01:30:19.741Z,78.74
2023-02-19T01:31:19.821Z,78.64
2023-02-19T01:32:19.751Z,78.74
2023-02-19T01:33:19.698Z,78.74
2023-02-19T01:34:19.661Z,78.74
2023-02-19T01:35:19.678Z,78.74
2023-02-19T01:36:19.639Z,78.85
2023-02-19T01:37:19.716Z,78.85
2023-02-19T01:38:19.609Z,78.94
2023-02-19T01:39:19.617Z,78.98
2023-02-19T01:40:19.606Z,79.05
2023-02-19T01:41:19.589Z,79.05
2023-02-19T01:42:19.589Z,79.15
2023-02-19T01:43:19.569Z,79.29
2023-02-19T01:44:19.553Z,79.39
2023-02-19T01:45:19.543Z,79.39
2023-02-19T01:46:19.573Z,79.49
2023-02-19T01:47:19.545Z,79.60
2023-02-19T01:48:19.512Z,79.80
2023-02-19T01:49:19.495Z,80.01
2023-02-19T01:50:19.492Z,80.01
2023-02-19T01:51:19.485Z,80.21
2023-02-19T01:52:19.478Z,80.42
2023-02-19T01:53:19.416Z,80.52
2023-02-19T01:54:19.377Z,80.63
2023-02-19T01:55:19.450Z,80.73
2023-02-19T01:56:19.435Z,80.83
2023-02-19T01:57:19.439Z,80.83
2023-02-19T01:58:19.393Z,81.04
2023-02-19T01:59:19.420Z,81.14
2023-02-19T02:00:19.404Z,81.34
2023-02-19T02:01:19.936Z,81.45
2023-02-19T02:02:19.420Z,81.55
2023-02-19T02:03:19.353Z,81.65
2023-02-19T02:04:19.345Z,81.76
2023-02-19T02:05:19.344Z,82.00
2023-02-19T02:06:19.315Z,82.10
2023-02-19T02:07:19.338Z,82.20
2023-02-19T02:08:19.337Z,82.31
2023-02-19T02:09:19.284Z,82.31
2023-02-19T02:10:19.280Z,82.41
2023-02-19T02:11:19.301Z,82.41
2023-02-19T02:12:19.299Z,82.51
2023-02-19T02:13:19.284Z,82.62
2023-02-19T02:14:19.235Z,82.62
2023-02-19T02:15:19.237Z,82.62
2023-02-19T02:16:19.271Z,82.71
2023-02-19T02:17:19.251Z,82.82
2023-02-19T02:18:19.177Z,82.82
2023-02-19T02:19:19.183Z,82.92
2023-02-19T02:20:19.183Z,82.82
2023-02-19T02:21:19.159Z,82.82
2023-02-19T02:22:19.151Z,82.82
2023-02-19T02:23:19.146Z,82.82
2023-02-19T02:24:19.134Z,82.82
2023-02-19T02:25:19.126Z,82.82
2023-02-19T02:26:19.127Z,82.71
2023-02-19T02:27:19.103Z,82.62
2023-02-19T02:28:19.082Z,82.71
2023-02-19T02:29:19.074Z,82.62
2023-02-19T02:30:19.106Z,82.51
2023-02-19T02:31:19.147Z,82.51
2023-02-19T02:32:19.104Z,82.41
2023-02-19T02:33:19.026Z,82.41
2023-02-19T02:34:19.005Z,82.31
2023-02-19T02:35:18.997Z,82.31
2023-02-19T02:36:18.998Z,82.31
2023-02-19T02:37:19.005Z,82.31
2023-02-19T02:38:18.967Z,82.41
2023-02-19T02:39:18.990Z,82.41
2023-02-19T02:40:18.942Z,82.51
2023-02-19T02:41:18.951Z,82.71
2023-02-19T02:42:18.976Z,82.71
2023-02-19T02:43:19.059Z,82.92
2023-02-19T02:44:18.913Z,82.92
2023-02-19T02:45:18.921Z,82.92
2023-02-19T02:46:18.897Z,82.92
2023-02-19T02:47:18.878Z,83.13
2023-02-19T02:48:18.872Z,83.03
2023-02-19T02:49:18.860Z,83.33
2023-02-19T02:50:18.834Z,83.13
2023-02-19T02:51:18.829Z,83.23
2023-02-19T02:52:18.874Z,83.13
2023-02-19T02:53:18.815Z,83.03
2023-02-19T02:54:18.836Z,82.92
2023-02-19T02:55:18.858Z,82.92
2023-02-19T02:56:18.785Z,83.03
2023-02-19T02:57:18.798Z,83.13
2023-02-19T02:58:18.801Z,83.23
2023-02-19T02:59:18.754Z,83.23
2023-02-19T03:00:18.732Z,83.23
2023-02-19T03:01:18.736Z,83.37
2023-02-19T03:02:18.891Z,83.27
2023-02-19T03:03:18.707Z,83.23
2023-02-19T03:04:18.680Z,83.27
2023-02-19T03:05:18.685Z,83.03
2023-02-19T03:06:18.680Z,82.92
2023-02-19T03:07:18.671Z,82.92
2023-02-19T03:08:18.638Z,82.96
2023-02-19T03:09:18.629Z,82.96
2023-02-19T03:10:18.639Z,82.92
2023-02-19T03:11:18.659Z,82.82
2023-02-19T03:12:18.617Z,82.71
2023-02-19T03:13:18.604Z,82.62
2023-02-19T03:14:18.575Z,82.62
2023-02-19T03:15:18.584Z,82.62
2023-02-19T03:16:18.568Z,82.62
2023-02-19T03:17:18.568Z,82.41
2023-02-19T03:18:18.534Z,82.51
2023-02-19T03:19:18.535Z,82.62
2023-02-19T03:20:18.522Z,82.71
2023-02-19T03:21:18.511Z,82.82
2023-02-19T03:22:18.558Z,82.71
2023-02-19T03:23:18.497Z,82.71
2023-02-19T03:24:18.475Z,82.65
2023-02-19T03:25:18.495Z,82.86
2023-02-19T03:26:18.462Z,83.17
2023-02-19T03:27:18.443Z,83.37
2023-02-19T03:28:18.423Z,83.89
2023-02-19T03:29:18.427Z,83.78
2023-02-19T03:30:18.483Z,84.20
2023-02-19T03:31:18.516Z,83.99
2023-02-19T03:32:18.443Z,83.99
2023-02-19T03:33:18.383Z,83.99
2023-02-19T03:34:18.356Z,84.20
2023-02-19T03:35:18.349Z,84.30
2023-02-19T03:36:18.325Z,83.99
2023-02-19T03:37:18.332Z,83.89
2023-02-19T03:38:18.327Z,83.89
2023-02-19T03:39:18.315Z,83.99
2023-02-19T03:40:18.285Z,83.89
2023-02-19T03:41:18.281Z,83.89
2023-02-19T03:42:18.278Z,83.68
2023-02-19T03:43:18.255Z,83.68
2023-02-19T03:44:18.301Z,83.58
2023-02-19T03:45:18.230Z,83.68
2023-02-19T03:46:18.225Z,83.78
2023-02-19T03:47:18.399Z,83.89
2023-02-19T03:48:18.215Z,83.58
2023-02-19T03:49:18.208Z,83.78
2023-02-19T03:50:18.182Z,83.78
2023-02-19T03:51:18.175Z,84.23
2023-02-19T03:52:18.194Z,84.34
2023-02-19T03:53:18.146Z,84.23
2023-02-19T03:54:18.146Z,84.13
2023-02-19T03:55:18.136Z,84.03
2023-02-19T03:56:18.113Z,84.13
2023-02-19T03:57:18.134Z,84.44
2023-02-19T03:58:18.108Z,83.83
2023-02-19T03:59:18.095Z,83.92
2023-02-19T04:00:18.070Z,83.72
2023-02-19T04:01:18.079Z,83.51
2023-02-19T04:02:18.115Z,83.72
2023-02-19T04:03:18.045Z,83.83
2023-02-19T04:04:18.079Z,83.83
2023-02-19T04:05:18.050Z,83.72
2023-02-19T04:06:18.013Z,83.41
2023-02-19T04:07:18.026Z,83.51
2023-02-19T04:08:18.005Z,83.51
2023-02-19T04:09:17.996Z,83.62
2023-02-19T04:10:17.965Z,83.31
2023-02-19T04:11:17.957Z,83.31
2023-02-19T04:12:17.966Z,83.20
2023-02-19T04:13:17.952Z,83.00
2023-02-19T04:14:17.932Z,83.00
2023-02-19T04:15:17.935Z,82.90
2023-02-19T04:16:17.965Z,83.20
2023-02-19T04:17:17.902Z,83.31
2023-02-19T04:18:17.890Z,83.11
2023-02-19T04:19:17.883Z,83.20
2023-02-19T04:20:17.879Z,82.90
2023-02-19T04:21:17.849Z,82.90
2023-02-19T04:22:17.856Z,82.79
2023-02-19T04:23:17.845Z,82.79
2023-02-19T04:24:17.810Z,82.69
2023-02-19T04:25:17.819Z,82.48
2023-02-19T04:26:17.818Z,82.59
2023-02-19T04:27:17.805Z,82.18
2023-02-19T04:28:17.815Z,82.18
2023-02-19T04:29:17.772Z,82.07
2023-02-19T04:30:17.810Z,82.07
2023-02-19T04:31:17.946Z,82.07
2023-02-19T04:32:17.757Z,82.07
2023-02-19T04:33:17.745Z,82.07
2023-02-19T04:34:17.699Z,81.97
2023-02-19T04:35:17.696Z,81.87
2023-02-19T04:36:17.673Z,81.67
2023-02-19T04:37:17.680Z,81.46
2023-02-19T04:38:17.676Z,81.46
2023-02-19T04:39:17.680Z,81.42
2023-02-19T04:40:17.644Z,81.21
2023-02-19T04:41:17.655Z,81.21
2023-02-19T04:42:17.649Z,81.21
2023-02-19T04:43:17.607Z,81.42
2023-02-19T04:44:17.595Z,81.32
2023-02-19T04:45:17.599Z,81.35
2023-02-19T04:46:17.653Z,81.35
2023-02-19T04:47:17.617Z,81.56
2023-02-19T04:48:17.545Z,81.46
2023-02-19T04:49:17.564Z,81.46
2023-02-19T04:50:17.615Z,81.35
2023-02-19T04:51:17.508Z,81.35
2023-02-19T04:52:17.537Z,81.46
2023-02-19T04:53:17.504Z,81.35
2023-02-19T04:54:17.487Z,81.35
2023-02-19T04:55:17.469Z,81.32
2023-02-19T04:56:17.493Z,81.21
2023-02-19T04:57:17.454Z,81.15
2023-02-19T04:58:17.435Z,81.25
2023-02-19T04:59:17.485Z,81.46
2023-02-19T05:00:17.416Z,81.46
2023-02-19T05:01:17.438Z,81.35
2023-02-19T05:02:17.472Z,81.35
2023-02-19T05:03:17.378Z,81.25
2023-02-19T05:04:17.463Z,81.05
2023-02-19T05:05:17.384Z,81.15
2023-02-19T05:06:17.360Z,81.05
2023-02-19T05:07:17.372Z,81.25
2023-02-19T05:08:17.349Z,81.25
2023-02-19T05:09:17.336Z,81.25
2023-02-19T05:10:17.318Z,81.15
2023-02-19T05:11:17.311Z,81.05
2023-02-19T05:12:17.302Z,81.15
2023-02-19T05:13:17.318Z,81.25
2023-02-19T05:14:17.276Z,81.46
2023-02-19T05:15:17.269Z,81.46
2023-02-19T05:16:17.266Z,81.46
2023-02-19T05:17:17.260Z,81.46
2023-02-19T05:18:17.235Z,81.46
2023-02-19T05:19:17.214Z,81.56
2023-02-19T05:20:17.217Z,81.56
2023-02-19T05:21:17.191Z,81.46
2023-02-19T05:22:17.195Z,81.56
2023-02-19T05:23:17.168Z,81.56
2023-02-19T05:24:17.159Z,81.56
2023-02-19T05:25:17.139Z,81.67
2023-02-19T05:26:17.202Z,81.56
2023-02-19T05:27:17.135Z,81.67
2023-02-19T05:28:17.177Z,81.56
2023-02-19T05:29:17.136Z,81.67
2023-02-19T05:30:17.147Z,81.67
2023-02-19T05:31:17.149Z,81.67
2023-02-19T05:32:17.141Z,81.76
2023-02-19T05:33:17.072Z,81.67
2023-02-19T05:34:17.045Z,81.76
2023-02-19T05:35:17.046Z,81.76
2023-02-19T05:36:17.048Z,81.76
2023-02-19T05:37:17.020Z,81.67
2023-02-19T05:38:17.029Z,81.67
2023-02-19T05:39:17.001Z,81.67
2023-02-19T05:40:17.010Z,81.76
2023-02-19T05:41:16.994Z,81.67
2023-02-19T05:42:16.985Z,81.67
2023-02-19T05:43:16.970Z,81.67
2023-02-19T05:44:16.940Z,81.76
2023-02-19T05:45:16.942Z,81.56
2023-02-19T05:46:16.993Z,81.46
2023-02-19T05:47:16.925Z,81.56
2023-02-19T05:48:16.910Z,81.67
2023-02-19T05:49:16.898Z,81.15
2023-02-19T05:50:16.931Z,81.35
2023-02-19T05:51:16.859Z,81.46
2023-02-19T05:52:16.896Z,81.56
2023-02-19T05:53:16.848Z,81.56
2023-02-19T05:54:16.927Z,81.76
2023-02-19T05:55:16.845Z,81.67
2023-02-19T05:56:16.831Z,81.46
2023-02-19T05:57:16.810Z,81.15
2023-02-19T05:58:16.821Z,80.94
2023-02-19T05:59:16.806Z,80.63
2023-02-19T06:00:16.767Z,80.53
2023-02-19T06:01:16.775Z,80.63
2023-02-19T06:02:16.753Z,80.84
2023-02-19T06:03:16.707Z,80.84
2023-02-19T06:04:16.716Z,80.74
2023-02-19T06:05:16.652Z,80.84
2023-02-19T06:06:16.645Z,80.94
2023-02-19T06:07:16.654Z,80.63
2023-02-19T06:08:16.622Z,80.63
2023-02-19T06:09:16.652Z,80.43
2023-02-19T06:10:16.609Z,80.33
2023-02-19T06:11:16.607Z,80.33
2023-02-19T06:12:16.612Z,80.74
2023-02-19T06:13:17.844Z,80.84
2023-02-19T06:14:16.593Z,81.46
2023-02-19T06:15:16.574Z,82.07
2023-02-19T06:16:16.608Z,82.59
2023-02-19T06:17:16.552Z,82.48
2023-02-19T06:18:16.544Z,83.14
2023-02-19T06:19:16.520Z,82.93
2023-02-19T06:20:16.512Z,83.04
2023-02-19T06:21:16.509Z,83.04
2023-02-19T06:22:16.502Z,82.21
2023-02-19T06:23:16.458Z,82.63
2023-02-19T06:24:16.474Z,82.01
2023-02-19T06:25:16.435Z,80.47
2023-02-19T06:26:16.461Z,80.47
2023-02-19T06:27:16.424Z,80.05
2023-02-19T06:28:16.416Z,79.85
2023-02-19T06:29:16.410Z,80.26
2023-02-19T06:30:16.436Z,79.64
2023-02-19T06:31:16.450Z,79.54
2023-02-19T06:32:16.421Z,78.92
2023-02-19T06:33:16.351Z,78.51
2023-02-19T06:34:16.360Z,78.00
2023-02-19T06:35:16.341Z,76.76
2023-02-19T06:36:16.374Z,76.97
2023-02-19T06:37:16.324Z,76.66
2023-02-19T06:38:16.327Z,76.66
2023-02-19T06:39:16.341Z,75.73
2023-02-19T06:40:16.305Z,76.11
2023-02-19T06:41:16.278Z,76.25
2023-02-19T06:42:16.273Z,75.59
2023-02-19T06:43:16.277Z,76.35
2023-02-19T06:44:16.249Z,76.35
2023-02-19T06:45:16.236Z,75.84
2023-02-19T06:46:16.328Z,76.25
2023-02-19T06:47:16.228Z,74.80
2023-02-19T06:48:16.223Z,74.60
2023-02-19T06:49:16.179Z,75.12
2023-02-19T06:50:16.192Z,74.80
2023-02-19T06:51:16.196Z,75.01
2023-02-19T06:52:16.180Z,74.91
2023-02-19T06:53:16.139Z,73.98
2023-02-19T06:54:16.153Z,74.80
2023-02-19T06:55:16.126Z,74.60
2023-02-19T06:56:16.114Z,75.22
2023-02-19T06:57:16.115Z,74.70
2023-02-19T06:58:16.103Z,74.50
2023-02-19T06:59:16.084Z,75.01
2023-02-19T07:00:16.087Z,74.15
2023-02-19T07:01:16.158Z,73.85
2023-02-19T07:02:16.068Z,73.44
2023-02-19T07:03:16.063Z,73.44
2023-02-19T07:04:16.193Z,74.08
2023-02-19T07:05:16.018Z,73.98
2023-02-19T07:06:16.016Z,74.29
2023-02-19T07:07:16.024Z,73.36
2023-02-19T07:08:15.989Z,74.08
2023-02-19T07:09:15.972Z,74.36
2023-02-19T07:10:15.977Z,74.87
2023-02-19T07:11:15.957Z,74.46
2023-02-19T07:12:15.965Z,74.67
2023-02-19T07:13:15.947Z,73.95
2023-02-19T07:14:15.940Z,74.46
2023-02-19T07:15:15.902Z,74.77
2023-02-19T07:16:15.913Z,74.36
2023-02-19T07:17:15.910Z,73.95
2023-02-19T07:18:15.896Z,74.05
2023-02-19T07:19:15.857Z,74.77
2023-02-19T07:20:15.849Z,74.70
2023-02-19T07:21:15.845Z,74.60
2023-02-19T07:22:15.837Z,74.60
2023-02-19T07:23:15.829Z,74.40
2023-02-19T07:24:15.839Z,74.80
2023-02-19T07:25:15.803Z,74.40
2023-02-19T07:26:15.785Z,75.22
2023-02-19T07:27:15.801Z,74.80
2023-02-19T07:28:15.778Z,74.19
2023-02-19T07:29:15.791Z,74.50
2023-02-19T07:30:15.823Z,74.08
2023-02-19T07:31:15.917Z,73.78
2023-02-19T07:32:15.754Z,74.40
2023-02-19T07:33:15.734Z,73.88
2023-02-19T07:34:15.694Z,73.78
2023-02-19T07:35:15.709Z,74.08
2023-02-19T07:36:15.709Z,74.19
2023-02-19T07:37:15.688Z,73.36
2023-02-19T07:38:15.676Z,73.47
2023-02-19T07:39:15.649Z,73.98
2023-02-19T07:40:15.656Z,73.47
2023-02-19T07:41:15.638Z,73.98
2023-02-19T07:42:15.646Z,74.08
2023-02-19T07:43:15.601Z,73.98
2023-02-19T07:44:15.604Z,73.98
2023-02-19T07:45:15.581Z,74.60
2023-02-19T07:46:15.588Z,75.63
2023-02-19T07:47:15.606Z,75.63
2023-02-19T07:48:15.581Z,77.38
2023-02-19T07:49:15.546Z,77.89
2023-02-19T07:50:15.553Z,77.58
2023-02-19T07:51:15.551Z,78.51
2023-02-19T07:52:15.525Z,79.06
2023-02-19T07:53:15.516Z,78.72
2023-02-19T07:54:15.529Z,78.72
2023-02-19T07:55:15.495Z,78.61
2023-02-19T07:56:15.487Z,78.72
2023-02-19T07:57:15.524Z,79.03
2023-02-19T07:58:15.451Z,79.23
2023-02-19T07:59:15.436Z,78.30
2023-02-19T08:00:15.449Z,78.82
2023-02-19T08:01:15.569Z,78.78
2023-02-19T08:02:15.431Z,78.58
2023-02-19T08:03:15.466Z,77.55
2023-02-19T08:04:15.388Z,77.55
2023-02-19T08:05:15.366Z,77.45
2023-02-19T08:06:15.404Z,77.65
2023-02-19T08:07:15.372Z,76.73
2023-02-19T08:08:15.379Z,76.52
2023-02-19T08:09:15.362Z,76.42
2023-02-19T08:10:15.338Z,76.21
2023-02-19T08:11:15.332Z,75.90
2023-02-19T08:12:15.316Z,75.39
2023-02-19T08:13:15.288Z,75.59
2023-02-19T08:14:15.328Z,75.49
2023-02-19T08:15:15.274Z,76.01
2023-02-19T08:16:21.805Z,75.70
2023-02-19T08:17:15.319Z,75.80
2023-02-19T08:18:15.275Z,75.90
2023-02-19T08:19:15.223Z,76.86
2023-02-19T08:20:15.232Z,76.66
2023-02-19T08:21:15.207Z,77.45
2023-02-19T08:22:15.204Z,77.55
2023-02-19T08:23:15.176Z,77.69
2023-02-19T08:24:15.201Z,78.10
2023-02-19T08:25:15.149Z,78.72
2023-02-19T08:26:15.146Z,79.03
2023-02-19T08:27:15.151Z,79.44
2023-02-19T08:28:15.140Z,79.85
2023-02-19T08:29:15.112Z,80.26
2023-02-19T08:30:15.193Z,80.61
2023-02-19T08:31:15.484Z,80.51
2023-02-19T08:32:15.119Z,80.81
2023-02-19T08:33:15.082Z,80.91
2023-02-19T08:34:15.087Z,80.71
2023-02-19T08:35:15.061Z,80.61
2023-02-19T08:36:15.061Z,80.71
2023-02-19T08:37:15.052Z,80.57
2023-02-19T08:38:15.028Z,80.16
2023-02-19T08:39:15.016Z,79.85
2023-02-19T08:40:15.033Z,79.85
2023-02-19T08:41:15.132Z,79.95
2023-02-19T08:42:15.005Z,79.54
2023-02-19T08:43:14.996Z,79.85
2023-02-19T08:44:14.966Z,79.33
2023-02-19T08:45:14.947Z,78.99
2023-02-19T08:46:15.012Z,78.99
2023-02-19T08:47:14.937Z,78.68
2023-02-19T08:48:14.929Z,77.75
2023-02-19T08:49:14.900Z,77.65
2023-02-19T08:50:14.885Z,77.00
2023-02-19T08:51:15.162Z,77.51
2023-02-19T08:52:14.897Z,77.31
2023-02-19T08:53:14.886Z,76.69
2023-02-19T08:54:14.855Z,76.69
2023-02-19T08:55:14.829Z,76.79
2023-02-19T08:56:14.865Z,75.35
2023-02-19T08:57:14.846Z,74.63
2023-02-19T08:58:14.808Z,73.81
2023-02-19T08:59:14.799Z,73.61
2023-02-19T09:00:14.784Z,73.19
2023-02-19T09:01:15.283Z,74.22
2023-02-19T09:02:14.771Z,74.12
2023-02-19T09:03:14.758Z,73.78
2023-02-19T09:04:14.820Z,73.50
2023-02-19T09:05:14.745Z,73.36
2023-02-19T09:06:14.701Z,73.47
2023-02-19T09:07:14.720Z,72.96
2023-02-19T09:08:14.709Z,72.55
2023-02-19T09:09:14.676Z,72.24
2023-02-19T09:10:14.671Z,71.83
2023-02-19T09:11:14.867Z,71.21
2023-02-19T09:12:14.706Z,71.11
2023-02-19T09:13:14.722Z,71.72
2023-02-19T09:14:14.653Z,72.20
2023-02-19T09:15:14.619Z,70.87
2023-02-19T09:16:14.667Z,70.36
2023-02-19T09:17:14.658Z,70.36
2023-02-19T09:18:14.644Z,69.94
2023-02-19T09:19:14.591Z,70.25
2023-02-19T09:20:14.575Z,70.56
2023-02-19T09:21:14.569Z,70.56
2023-02-19T09:22:14.555Z,69.64
2023-02-19T09:23:14.541Z,70.01
2023-02-19T09:24:14.511Z,70.53
2023-02-19T09:25:14.512Z,69.29
2023-02-19T09:26:14.545Z,69.64
2023-02-19T09:27:14.506Z,70.97
2023-02-19T09:28:14.484Z,70.04
2023-02-19T09:29:14.466Z,70.59
2023-02-19T09:30:14.635Z,71.00
2023-02-19T09:31:14.942Z,71.21
2023-02-19T09:32:14.473Z,70.39
2023-02-19T09:33:14.433Z,70.28
2023-02-19T09:34:14.417Z,70.39
2023-02-19T09:35:14.427Z,71.11
2023-02-19T09:36:14.434Z,70.08
2023-02-19T09:37:14.423Z,71.00
2023-02-19T09:38:14.367Z,70.18
2023-02-19T09:39:14.387Z,70.39
2023-02-19T09:40:14.371Z,70.70
2023-02-19T09:41:14.364Z,69.77
2023-02-19T09:42:14.337Z,70.25
2023-02-19T09:43:14.319Z,70.04
2023-02-19T09:44:14.325Z,69.53
2023-02-19T09:45:14.295Z,69.74
2023-02-19T09:46:14.491Z,69.32
2023-02-19T09:47:14.288Z,69.94
2023-02-19T09:48:14.258Z,69.43
2023-02-19T09:49:14.281Z,68.71
2023-02-19T09:50:14.494Z,67.68
2023-02-19T09:51:14.258Z,68.43
2023-02-19T09:52:14.230Z,69.05
2023-02-19T09:53:14.231Z,69.77
2023-02-19T09:54:14.247Z,69.46
2023-02-19T09:55:14.468Z,70.59
2023-02-19T09:56:14.178Z,69.67
2023-02-19T09:57:14.777Z,69.67
2023-02-19T09:58:14.170Z,70.28
2023-02-19T09:59:14.161Z,70.49
2023-02-19T10:00:14.153Z,69.67
2023-02-19T10:01:14.416Z,70.79
2023-02-19T10:02:14.260Z,71.55
2023-02-19T10:03:14.108Z,72.47
2023-02-19T10:04:14.102Z,72.47
2023-02-19T10:05:14.116Z,73.30
2023-02-19T10:06:14.064Z,73.40
2023-02-19T10:07:14.124Z,72.89
2023-02-19T10:08:14.051Z,73.50
2023-02-19T10:09:14.071Z,73.09
2023-02-19T10:10:14.021Z,72.72
2023-02-19T10:11:14.034Z,71.69
2023-02-19T10:12:14.046Z,72.30
2023-02-19T10:13:13.992Z,72.68
2023-02-19T10:14:13.972Z,71.45
2023-02-19T10:15:13.961Z,72.27
2023-02-19T10:16:14.005Z,71.96
2023-02-19T10:17:13.953Z,72.99
2023-02-19T10:18:13.971Z,72.38
2023-02-19T10:19:13.945Z,72.47
2023-02-19T10:20:13.909Z,71.96
2023-02-19T10:21:13.940Z,71.96
2023-02-19T10:22:13.925Z,73.30
2023-02-19T10:23:13.904Z,72.89
2023-02-19T10:24:13.863Z,72.47
2023-02-19T10:25:13.872Z,72.99
2023-02-19T10:26:13.858Z,72.99
2023-02-19T10:27:13.868Z,72.99
2023-02-19T10:28:13.831Z,72.13
2023-02-19T10:29:13.853Z,71.83
2023-02-19T10:30:13.823Z,72.34
2023-02-19T10:31:14.241Z,71.72
2023-02-19T10:32:13.923Z,69.98
2023-02-19T10:33:13.785Z,70.08
2023-02-19T10:34:14.037Z,70.59
2023-02-19T10:35:13.784Z,70.25
2023-02-19T10:36:13.755Z,69.43
2023-02-19T10:37:13.756Z,70.15
2023-02-19T10:38:13.712Z,69.02
2023-02-19T10:39:13.728Z,68.61
2023-02-19T10:40:13.713Z,68.40
2023-02-19T10:41:13.697Z,68.91
2023-02-19T10:42:13.705Z,68.51
2023-02-19T10:43:13.688Z,69.23
2023-02-19T10:44:13.663Z,69.32
2023-02-19T10:45:13.638Z,69.43
2023-02-19T10:46:13.665Z,68.10
2023-02-19T10:47:13.701Z,68.71
2023-02-19T10:48:13.606Z,67.35
2023-02-19T10:49:13.624Z,67.65
2023-02-19T10:50:13.585Z,66.93
2023-02-19T10:51:13.860Z,66.73
2023-02-19T10:52:13.586Z,66.73
2023-02-19T10:53:13.571Z,67.21
2023-02-19T10:54:13.552Z,66.60
2023-02-19T10:55:13.533Z,66.60
2023-02-19T10:56:13.534Z,66.19
2023-02-19T10:57:13.560Z,66.39
2023-02-19T10:58:13.522Z,65.57
2023-02-19T10:59:13.493Z,65.33
2023-02-19T11:00:13.508Z,65.16
2023-02-19T11:01:13.481Z,64.72
2023-02-19T11:02:13.481Z,64.51
2023-02-19T11:03:13.477Z,65.12
2023-02-19T11:04:13.552Z,64.51
2023-02-19T11:05:13.450Z,65.12
2023-02-19T11:06:13.428Z,64.61
2023-02-19T11:07:13.433Z,63.35
2023-02-19T11:08:13.404Z,63.35
2023-02-19T11:09:13.428Z,62.74
2023-02-19T11:10:13.376Z,62.98
2023-02-19T11:11:13.376Z,63.15
2023-02-19T11:12:13.397Z,63.05
2023-02-19T11:13:13.359Z,63.15
2023-02-19T11:14:13.347Z,63.05
2023-02-19T11:15:13.338Z,62.43
2023-02-19T11:16:13.344Z,62.56
2023-02-19T11:17:13.327Z,62.87
2023-02-19T11:18:13.314Z,63.39
2023-02-19T11:19:13.284Z,62.77
2023-02-19T11:20:13.301Z,62.87
2023-02-19T11:21:13.314Z,62.98
2023-02-19T11:22:13.260Z,63.07
2023-02-19T11:23:14.265Z,62.46
2023-02-19T11:24:13.297Z,62.23
2023-02-19T11:25:13.299Z,62.63
2023-02-19T11:26:13.237Z,62.63
2023-02-19T11:27:13.247Z,62.46
2023-02-19T11:28:13.262Z,62.36
2023-02-19T11:29:13.221Z,62.15
2023-02-19T11:30:13.200Z,62.36
2023-02-19T11:31:13.585Z,62.77
2023-02-19T11:32:13.257Z,62.46
2023-02-19T11:33:13.144Z,62.56
2023-02-19T11:34:13.134Z,62.66
2023-02-19T11:35:13.131Z,62.66
2023-02-19T11:36:13.114Z,62.66
2023-02-19T11:37:13.118Z,63.07
2023-02-19T11:38:13.101Z,62.66
2023-02-19T11:39:13.089Z,62.46
2023-02-19T11:40:13.056Z,63.10
2023-02-19T11:41:13.311Z,62.59
2023-02-19T11:42:13.063Z,62.39
2023-02-19T11:43:13.058Z,62.80
2023-02-19T11:44:13.015Z,62.49
2023-02-19T11:45:13.030Z,62.18
2023-02-19T11:46:13.026Z,62.36
2023-02-19T11:47:13.008Z,62.05
2023-02-19T11:48:12.988Z,62.05
2023-02-19T11:49:12.980Z,61.54
2023-02-19T11:50:13.016Z,61.74
2023-02-19T11:51:13.219Z,61.54
2023-02-19T11:52:12.959Z,61.64
2023-02-19T11:53:12.959Z,61.64
2023-02-19T11:54:12.917Z,61.74
2023-02-19T11:55:12.936Z,61.87
2023-02-19T11:56:12.928Z,61.57
2023-02-19T11:57:12.953Z,61.98
2023-02-19T11:58:12.887Z,62.18
2023-02-19T11:59:12.859Z,62.18
2023-02-19T12:00:12.853Z,62.18
2023-02-19T12:01:13.778Z,62.29
2023-02-19T12:02:12.933Z,62.29
2023-02-19T12:03:12.835Z,62.05
2023-02-19T12:04:12.927Z,61.85
2023-02-19T12:05:12.850Z,61.67
2023-02-19T12:06:13.021Z,61.67
2023-02-19T12:07:12.824Z,61.26
2023-02-19T12:08:12.778Z,61.05
2023-02-19T12:09:12.800Z,61.05
2023-02-19T12:10:12.746Z,61.26
2023-02-19T12:11:12.739Z,61.16
2023-02-19T12:12:12.733Z,61.16
2023-02-19T12:13:12.777Z,60.92
2023-02-19T12:14:12.770Z,61.02
2023-02-19T12:15:12.693Z,60.72
2023-02-19T12:16:12.722Z,60.21
2023-02-19T12:17:12.683Z,60.00
2023-02-19T12:18:12.675Z,60.21
2023-02-19T12:19:12.703Z,60.00
2023-02-19T12:20:12.687Z,59.89
2023-02-19T12:21:12.749Z,60.21
2023-02-19T12:22:12.637Z,59.89
2023-02-19T12:23:12.642Z,59.89
2023-02-19T12:24:12.706Z,60.07
2023-02-19T12:25:12.656Z,59.97
2023-02-19T12:26:13.057Z,60.38
2023-02-19T12:27:12.660Z,59.77
2023-02-19T12:28:12.636Z,59.74
2023-02-19T12:29:12.547Z,59.43
2023-02-19T12:30:12.699Z,59.33
2023-02-19T12:31:12.689Z,59.23
2023-02-19T12:32:12.671Z,58.89
2023-02-19T12:33:12.585Z,58.89
2023-02-19T12:34:12.524Z,58.58
2023-02-19T12:35:12.486Z,57.87
2023-02-19T12:36:12.817Z,58.58
2023-02-19T12:37:12.764Z,58.07
2023-02-19T12:38:12.469Z,58.17
2023-02-19T12:39:12.443Z,57.76
2023-02-19T12:40:12.490Z,57.64
2023-02-19T12:41:12.463Z,57.43
2023-02-19T12:42:12.529Z,57.53
2023-02-19T12:43:12.395Z,57.33
2023-02-19T12:44:12.427Z,56.92
2023-02-19T12:45:12.380Z,56.74
2023-02-19T12:46:12.808Z,57.05
2023-02-19T12:47:12.373Z,57.02
2023-02-19T12:48:12.365Z,56.82
2023-02-19T12:49:12.349Z,56.61
2023-02-19T12:50:12.337Z,56.82
2023-02-19T12:51:12.329Z,56.69
2023-02-19T12:52:12.309Z,57.23